createdAt,value
2022-12-17T00:02:56.833Z,99171.66
2022-12-17T00:06:01.159Z,99175.97
2022-12-17T00:09:05.083Z,99173.22
2022-12-17T00:12:09.342Z,99170.06
2022-12-17T00:15:13.664Z,99175.59
2022-12-17T00:18:23.153Z,99178.38
2022-12-17T00:21:28.145Z,99180.38
2022-12-17T00:24:32.067Z,99176.44
2022-12-17T00:27:35.792Z,99177.63
2022-12-17T00:30:39.738Z,99181.19
2022-12-17T00:33:43.417Z,99184.34
2022-12-17T00:36:51.614Z,99184.34
2022-12-17T00:39:59.248Z,99193.44
2022-12-17T00:43:05.501Z,99199.75
2022-12-17T00:46:09.878Z,99200.94
2022-12-17T00:49:13.464Z,99200.94
2022-12-17T00:52:17.440Z,99208.44
2022-12-17T00:55:21.119Z,99211.22
2022-12-17T00:58:25.092Z,99216.75
2022-12-17T01:01:28.859Z,99220.72
2022-12-17T01:04:43.834Z,99230.19
2022-12-17T01:07:48.774Z,99230.19
2022-12-17T01:10:52.728Z,99234.97
2022-12-17T01:13:56.699Z,99228.66
2022-12-17T01:17:00.437Z,99224.66
2022-12-17T01:20:05.336Z,99234.56
2022-12-17T01:23:09.305Z,99236.56
2022-12-17T01:26:15.490Z,99237.75
2022-12-17T01:29:19.221Z,99236.56
2022-12-17T01:32:23.269Z,99249.22
2022-12-17T01:35:27.139Z,99248.03
2022-12-17T01:38:32.997Z,99247.25
2022-12-17T01:41:38.215Z,99246.06
2022-12-17T01:45:03.460Z,99242.91
2022-12-17T01:48:27.528Z,99240.91
2022-12-17T01:51:33.495Z,99246.88
2022-12-17T01:54:38.384Z,99249.22
2022-12-17T01:57:44.043Z,99254.75
2022-12-17T02:00:48.050Z,99258.72
2022-12-17T02:03:51.690Z,99255.59
2022-12-17T02:07:02.545Z,99259.19
2022-12-17T02:10:38.534Z,99266.72
2022-12-17T02:13:51.661Z,99267.88
2022-12-17T02:17:02.099Z,99264.72
2022-12-17T02:20:16.270Z,99269.09
2022-12-17T02:23:32.634Z,99273.84
2022-12-17T02:27:08.214Z,99278.59
2022-12-17T02:30:20.744Z,99276.63
2022-12-17T02:33:26.072Z,99277.78
2022-12-17T02:36:29.776Z,99277.44
2022-12-17T02:39:33.540Z,99275.06
2022-12-17T02:42:41.670Z,99276.25
2022-12-17T02:45:47.142Z,99283.38
2022-12-17T02:48:50.851Z,99276.28
2022-12-17T02:51:55.338Z,99282.59
2022-12-17T02:54:59.384Z,99289.34
2022-12-17T02:58:03.302Z,99290.13
2022-12-17T03:01:07.177Z,99281.44
2022-12-17T03:04:12.832Z,99294.47
2022-12-17T03:07:16.545Z,99289.72
2022-12-17T03:10:20.615Z,99290.50
2022-12-17T03:13:24.336Z,99292.09
2022-12-17T03:16:37.809Z,99290.13
2022-12-17T03:19:42.268Z,99300.00
2022-12-17T03:22:47.071Z,99304.38
2022-12-17T03:25:50.885Z,99311.88
2022-12-17T03:28:54.804Z,99310.31
2022-12-17T03:31:58.630Z,99310.69
2022-12-17T03:35:02.441Z,99316.63
2022-12-17T03:38:06.228Z,99309.47
2022-12-17T03:41:10.204Z,99316.56
2022-12-17T03:44:13.958Z,99307.06
2022-12-17T03:47:18.063Z,99312.16
2022-12-17T03:50:22.954Z,99320.84
2022-12-17T03:53:26.636Z,99323.59
2022-12-17T03:56:30.532Z,99320.84
2022-12-17T03:59:34.240Z,99322.00
2022-12-17T04:02:38.163Z,99320.81
2022-12-17T04:05:42.406Z,99323.94
2022-12-17T04:08:46.864Z,99326.72
2022-12-17T04:11:50.932Z,99328.31
2022-12-17T04:14:54.826Z,99333.84
2022-12-17T04:17:58.671Z,99334.63
2022-12-17T04:21:02.822Z,99343.31
2022-12-17T04:24:06.715Z,99346.88
2022-12-17T04:27:10.474Z,99346.09
2022-12-17T04:30:14.511Z,99357.94
2022-12-17T04:33:18.328Z,99365.06
2022-12-17T04:36:22.221Z,99367.84
2022-12-17T04:39:25.983Z,99373.38
2022-12-17T04:42:30.021Z,99375.75
2022-12-17T04:45:34.281Z,99378.13
2022-12-17T04:48:38.247Z,99371.00
2022-12-17T04:51:43.030Z,99379.28
2022-12-17T04:54:46.777Z,99383.66
2022-12-17T04:57:50.698Z,99380.50
2022-12-17T05:00:54.559Z,99370.19
2022-12-17T05:03:59.117Z,99386.03
2022-12-17T05:07:03.073Z,99383.22
2022-12-17T05:10:07.325Z,99381.66
2022-12-17T05:13:18.488Z,99387.19
2022-12-17T05:16:22.349Z,99392.75
2022-12-17T05:19:26.782Z,99394.72
2022-12-17T05:22:33.896Z,99405.38
2022-12-17T05:25:37.887Z,99401.03
2022-12-17T05:28:41.805Z,99407.75
2022-12-17T05:31:45.656Z,99419.63
2022-12-17T05:34:49.478Z,99427.13
2022-12-17T05:37:53.336Z,99427.53
2022-12-17T05:40:57.413Z,99434.66
2022-12-17T05:44:01.814Z,99438.97
2022-12-17T05:47:05.727Z,99429.50
2022-12-17T05:50:09.616Z,99437.38
2022-12-17T05:53:20.192Z,99440.16
2022-12-17T05:56:23.860Z,99443.69
2022-12-17T05:59:27.830Z,99452.41
2022-12-17T06:02:31.761Z,99445.28
2022-12-17T06:05:35.823Z,99455.16
2022-12-17T06:08:39.983Z,99453.22
2022-12-17T06:11:44.295Z,99452.00
2022-12-17T06:14:48.510Z,99459.50
2022-12-17T06:17:52.740Z,99458.28
2022-12-17T06:20:57.026Z,99463.75
2022-12-17T06:24:01.050Z,99461.34
2022-12-17T06:27:05.229Z,99465.66
2022-12-17T06:30:12.969Z,99478.34
2022-12-17T06:33:24.802Z,99487.91
2022-12-17T06:36:28.828Z,99486.75
2022-12-17T06:39:32.682Z,99484.41
2022-12-17T06:42:36.379Z,99487.59
2022-12-17T06:45:40.266Z,99492.38
2022-12-17T06:48:44.252Z,99494.34
2022-12-17T06:51:48.111Z,99490.81
2022-12-17T06:54:51.936Z,99491.97
2022-12-17T06:57:55.805Z,99499.88
2022-12-17T07:01:01.454Z,99497.47
2022-12-17T07:04:05.182Z,99510.88
2022-12-17T07:07:09.089Z,99509.66
2022-12-17T07:10:14.521Z,99524.66
2022-12-17T07:13:26.386Z,99533.34
2022-12-17T07:16:30.216Z,99535.31
2022-12-17T07:19:34.265Z,99539.19
2022-12-17T07:22:38.406Z,99544.34
2022-12-17T07:25:45.968Z,99546.31
2022-12-17T07:29:00.267Z,99545.50
2022-12-17T07:32:07.212Z,99551.84
2022-12-17T07:35:11.157Z,99548.63
2022-12-17T07:38:22.659Z,99549.78
2022-12-17T07:41:26.353Z,99541.09
2022-12-17T07:44:30.501Z,99557.69
2022-12-17T07:47:34.742Z,99556.09
2022-12-17T07:50:38.706Z,99562.00
2022-12-17T07:53:42.835Z,99558.03
2022-12-17T07:57:00.394Z,99567.06
2022-12-17T08:00:05.146Z,99574.19
2022-12-17T08:03:08.915Z,99576.94
2022-12-17T08:06:16.536Z,99580.91
2022-12-17T08:09:20.288Z,99586.41
2022-12-17T08:12:24.201Z,99588.78
2022-12-17T08:15:28.698Z,99599.88
2022-12-17T08:18:32.795Z,99600.28
2022-12-17T08:21:37.074Z,99596.69
2022-12-17T08:24:44.989Z,99613.75
2022-12-17T08:27:49.249Z,99621.63
2022-12-17T08:30:53.318Z,99618.09
2022-12-17T08:33:57.019Z,99615.31
2022-12-17T08:37:00.966Z,99622.41
2022-12-17T08:40:06.209Z,99626.75
2022-12-17T08:43:16.158Z,99622.78
2022-12-17T08:46:20.172Z,99634.22
2022-12-17T08:49:24.429Z,99629.13
2022-12-17T08:52:29.312Z,99646.53
2022-12-17T08:55:34.716Z,99639.38
2022-12-17T08:58:38.934Z,99635.44
2022-12-17T09:01:43.326Z,99640.97
2022-12-17T09:04:47.257Z,99645.72
2022-12-17T09:07:51.113Z,99653.66
2022-12-17T09:10:55.112Z,99656.81
2022-12-17T09:13:59.992Z,99656.81
2022-12-17T09:17:04.009Z,99661.53
2022-12-17T09:20:07.964Z,99658.34
2022-12-17T09:23:12.029Z,99659.53
2022-12-17T09:26:16.716Z,99663.50
2022-12-17T09:29:20.626Z,99661.91
2022-12-17T09:32:24.535Z,99661.91
2022-12-17T09:35:28.935Z,99667.06
2022-12-17T09:38:33.558Z,99663.13
2022-12-17T09:41:46.910Z,99663.13
2022-12-17T09:45:12.172Z,99672.22
2022-12-17T09:48:34.927Z,99674.22
2022-12-17T09:51:45.535Z,99680.56
2022-12-17T09:55:01.382Z,99689.66
2022-12-17T09:58:07.958Z,99680.53
2022-12-17T10:01:12.575Z,99681.28
2022-12-17T10:04:17.616Z,99682.09
2022-12-17T10:07:22.722Z,99690.00
2022-12-17T10:10:52.837Z,99699.91
2022-12-17T10:13:57.564Z,99702.69
2022-12-17T10:17:22.347Z,99703.47
2022-12-17T10:21:05.922Z,99699.53
2022-12-17T10:24:27.210Z,99697.94
2022-12-17T10:27:36.062Z,99704.25
2022-12-17T10:30:39.911Z,99711.41
2022-12-17T10:33:43.829Z,99712.56
2022-12-17T10:36:48.217Z,99709.78
2022-12-17T10:39:52.462Z,99717.28
2022-12-17T10:42:58.236Z,99723.22
2022-12-17T10:46:13.043Z,99718.09
2022-12-17T10:49:43.804Z,99719.28
2022-12-17T10:52:50.330Z,99722.06
2022-12-17T10:55:54.763Z,99723.66
2022-12-17T10:59:07.946Z,99719.66
2022-12-17T11:02:17.106Z,99722.44
2022-12-17T11:05:22.252Z,99726.44
2022-12-17T11:08:27.744Z,99724.84
2022-12-17T11:11:33.645Z,99733.59
2022-12-17T11:14:37.444Z,99731.31
2022-12-17T11:17:41.411Z,99740.41
2022-12-17T11:21:00.975Z,99734.50
2022-12-17T11:24:08.261Z,99736.81
2022-12-17T11:27:14.879Z,99737.63
2022-12-17T11:30:18.982Z,99744.72
2022-12-17T11:33:36.691Z,99738.75
2022-12-17T11:36:49.426Z,99746.25
2022-12-17T11:40:08.501Z,99740.31
2022-12-17T11:43:21.587Z,99743.09
2022-12-17T11:46:25.589Z,99740.31
2022-12-17T11:49:41.411Z,99731.97
2022-12-17T11:52:56.803Z,99736.31
2022-12-17T11:56:03.844Z,99741.44
2022-12-17T12:02:01.063Z,99746.19
2022-12-17T12:05:17.136Z,99741.44
2022-12-17T12:08:49.922Z,99748.16
2022-12-17T12:12:04.583Z,99749.75
2022-12-17T12:15:32.179Z,99756.91
2022-12-17T12:18:52.020Z,99756.09
2022-12-17T12:22:02.476Z,99756.88
2022-12-17T12:25:17.306Z,99755.69
2022-12-17T12:29:03.578Z,99764.06
2022-12-17T12:32:40.310Z,99770.41
2022-12-17T12:35:47.359Z,99769.63
2022-12-17T12:38:58.659Z,99767.63
2022-12-17T12:42:47.384Z,99770.41
2022-12-17T12:46:11.475Z,99782.69
2022-12-17T12:49:15.623Z,99782.69
2022-12-17T12:52:20.169Z,99789.44
2022-12-17T12:55:24.672Z,99783.13
2022-12-17T12:58:49.956Z,99777.94
2022-12-17T13:01:55.943Z,99777.13
2022-12-17T13:05:18.325Z,99778.72
2022-12-17T13:08:24.563Z,99795.38
2022-12-17T13:11:27.292Z,99784.66
2022-12-17T13:14:30.653Z,99793.75
2022-12-17T13:17:18.762Z,99799.31
2022-12-17T13:20:38.947Z,99792.53
2022-12-17T13:23:36.276Z,99792.94
2022-12-17T13:26:39.765Z,99803.66
2022-12-17T13:29:37.178Z,99797.69
2022-12-17T13:32:42.440Z,99804.03
2022-12-17T13:35:37.105Z,99803.22
2022-12-17T13:38:53.891Z,99814.31
2022-12-17T13:41:39.736Z,99815.53
2022-12-17T13:44:31.534Z,99818.69
2022-12-17T13:47:26.494Z,99819.06
2022-12-17T13:50:35.595Z,99817.88
2022-12-17T13:53:21.805Z,99825.81
2022-12-17T13:56:10.533Z,99827.78
2022-12-17T13:58:58.056Z,99829.34
2022-12-17T14:01:46.931Z,99839.69
2022-12-17T14:04:32.909Z,99837.69
2022-12-17T14:07:19.149Z,99843.63
2022-12-17T14:10:06.454Z,99844.41
2022-12-17T14:12:51.916Z,99845.22
2022-12-17T14:15:37.552Z,99855.13
2022-12-17T14:18:23.275Z,99863.84
2022-12-17T14:21:10.017Z,99871.34
2022-12-17T14:23:56.863Z,99863.03
2022-12-17T14:26:54.974Z,99876.13
2022-12-17T14:29:49.483Z,99877.72
2022-12-17T14:32:36.543Z,99885.63
2022-12-17T14:35:35.684Z,99885.63
2022-12-17T14:38:37.352Z,99887.63
2022-12-17T14:41:43.323Z,99885.63
2022-12-17T14:44:30.509Z,99891.13
2022-12-17T14:47:30.888Z,99886.41
2022-12-17T14:50:32.656Z,99889.56
2022-12-17T14:53:27.284Z,99896.72
2022-12-17T14:56:23.512Z,99904.28
2022-12-17T14:59:25.796Z,99905.50
2022-12-17T15:02:24.162Z,99903.13
2022-12-17T15:05:15.205Z,99914.19
2022-12-17T15:08:00.565Z,99920.16
2022-12-17T15:10:45.937Z,99924.13
2022-12-17T15:13:32.255Z,99924.50
2022-12-17T15:16:18.564Z,99927.28
2022-12-17T15:19:03.810Z,99930.06
2022-12-17T15:21:49.153Z,99930.44
2022-12-17T15:24:34.362Z,99932.84
2022-12-17T15:27:19.916Z,99932.44
2022-12-17T15:30:06.223Z,99934.00
2022-12-17T15:32:51.840Z,99934.03
2022-12-17T15:35:38.166Z,99940.78
2022-12-17T15:38:23.776Z,99941.94
2022-12-17T15:41:27.790Z,99940.34
2022-12-17T15:44:13.737Z,99953.84
2022-12-17T15:46:59.584Z,99941.94
2022-12-17T15:49:45.415Z,99950.69
2022-12-17T15:52:31.551Z,99950.69
2022-12-17T15:55:16.996Z,99954.66
2022-12-17T15:58:02.467Z,99950.69
2022-12-17T16:00:48.020Z,99961.00
2022-12-17T16:03:33.833Z,99953.84
2022-12-17T16:06:19.617Z,99965.78
2022-12-17T16:09:05.114Z,99963.78
2022-12-17T16:11:55.083Z,99968.13
2022-12-17T16:14:40.885Z,99973.28
2022-12-17T16:17:26.391Z,99961.75
2022-12-17T16:20:12.366Z,99973.25
2022-12-17T16:22:59.213Z,99975.25
2022-12-17T16:25:44.766Z,99976.41
2022-12-17T16:28:31.642Z,99978.03
2022-12-17T16:31:17.564Z,99980.03
2022-12-17T16:34:03.284Z,99979.19
2022-12-17T16:36:48.704Z,99975.63
2022-12-17T16:39:33.996Z,99980.00
2022-12-17T16:42:20.971Z,99981.63
2022-12-17T16:45:07.451Z,99991.53
2022-12-17T16:47:53.791Z,99987.97
2022-12-17T16:50:41.353Z,99998.66
2022-12-17T16:53:26.494Z,99995.50
2022-12-17T16:56:21.465Z,100004.63
2022-12-17T16:59:08.337Z,100010.19
2022-12-17T17:01:54.068Z,100006.19
2022-12-17T17:04:39.689Z,100006.19
2022-12-17T17:07:25.086Z,100011.75
2022-12-17T17:10:10.444Z,100017.31
2022-12-17T17:12:56.236Z,100021.25
2022-12-17T17:15:41.606Z,100013.34
2022-12-17T17:18:29.619Z,100018.13
2022-12-17T17:21:34.331Z,100020.91
2022-12-17T17:24:22.428Z,100014.97
2022-12-17T17:27:07.799Z,100029.66
2022-12-17T17:29:54.497Z,100030.03
2022-12-17T17:32:41.408Z,100034.41
2022-12-17T17:35:26.713Z,100035.97
2022-12-17T17:38:11.876Z,100033.19
2022-12-17T17:40:58.087Z,100040.75
2022-12-17T17:43:43.907Z,100043.09
2022-12-17T17:46:30.791Z,100033.97
2022-12-17T17:49:17.069Z,100042.69
2022-12-17T17:52:11.437Z,100044.66
2022-12-17T17:54:57.599Z,100043.44
2022-12-17T17:57:42.838Z,100041.84
2022-12-17T18:00:28.169Z,100035.06
2022-12-17T18:03:13.518Z,100044.63
2022-12-17T18:06:03.600Z,100047.78
2022-12-17T18:08:49.101Z,100051.75
2022-12-17T18:11:35.272Z,100052.13
2022-12-17T18:14:20.741Z,100060.88
2022-12-17T18:17:06.262Z,100068.03
2022-12-17T18:19:51.611Z,100068.03
2022-12-17T18:22:37.424Z,100077.53
2022-12-17T18:25:22.703Z,100070.41
2022-12-17T18:28:07.864Z,100078.75
2022-12-17T18:30:53.008Z,100081.97
2022-12-17T18:33:40.476Z,100087.50
2022-12-17T18:36:32.087Z,100086.34
2022-12-17T18:39:23.473Z,100089.50
2022-12-17T18:42:27.662Z,100097.06
2022-12-17T18:45:13.227Z,100093.09
2022-12-17T18:47:58.807Z,100096.31
2022-12-17T18:50:44.064Z,100105.44
2022-12-17T18:53:29.862Z,100103.84
2022-12-17T18:56:31.725Z,100114.16
2022-12-17T18:59:28.429Z,100116.53
2022-12-17T19:02:14.975Z,100121.69
2022-12-17T19:05:00.781Z,100131.22
2022-12-17T19:07:46.166Z,100132.41
2022-12-17T19:10:31.680Z,100131.56
2022-12-17T19:13:16.895Z,100132.34
2022-12-17T19:16:28.483Z,100128.34
2022-12-17T19:19:13.828Z,100120.38
2022-12-17T19:22:02.305Z,100133.88
2022-12-17T19:24:47.714Z,100131.91
2022-12-17T19:27:33.158Z,100127.13
2022-12-17T19:30:18.608Z,100129.91
2022-12-17T19:33:06.825Z,100133.47
2022-12-17T19:36:05.878Z,100134.66
2022-12-17T19:38:55.707Z,100133.47
2022-12-17T19:41:41.355Z,100139.41
2022-12-17T19:44:27.095Z,100148.13
2022-12-17T19:47:12.417Z,100138.66
2022-12-17T19:49:57.743Z,100143.81
2022-12-17T19:52:43.572Z,100142.28
2022-12-17T19:55:28.989Z,100147.84
2022-12-17T19:58:14.556Z,100147.81
2022-12-17T20:01:18.138Z,100145.38
2022-12-17T20:04:04.045Z,100148.59
2022-12-17T20:06:49.607Z,100160.88
2022-12-17T20:09:34.950Z,100159.31
2022-12-17T20:12:20.290Z,100154.53
2022-12-17T20:15:06.238Z,100161.28
2022-12-17T20:17:51.963Z,100165.66
2022-12-17T20:20:37.113Z,100170.44
2022-12-17T20:23:22.345Z,100166.44
2022-12-17T20:26:11.582Z,100176.34
2022-12-17T20:28:59.181Z,100172.78
2022-12-17T20:31:49.832Z,100182.31
2022-12-17T20:34:35.827Z,100176.31
2022-12-17T20:37:21.164Z,100175.16
2022-12-17T20:40:07.313Z,100185.47
2022-12-17T20:42:52.979Z,100191.78
2022-12-17T20:45:38.222Z,100190.63
2022-12-17T20:48:23.995Z,100189.00
2022-12-17T20:51:21.758Z,100191.78
2022-12-17T20:54:08.470Z,100195.34
2022-12-17T20:56:53.941Z,100194.56
2022-12-17T20:59:39.206Z,100205.28
2022-12-17T21:02:24.569Z,100205.28
2022-12-17T21:05:12.007Z,100204.09
2022-12-17T21:07:57.408Z,100195.75
2022-12-17T21:10:42.625Z,100204.53
2022-12-17T21:13:31.363Z,100218.03
2022-12-17T21:16:22.696Z,100208.47
2022-12-17T21:19:11.281Z,100212.84
2022-12-17T21:21:56.849Z,100209.66
2022-12-17T21:24:42.135Z,100211.66
2022-12-17T21:27:28.597Z,100214.03
2022-12-17T21:30:17.103Z,100208.47
2022-12-17T21:33:02.505Z,100214.44
2022-12-17T21:35:48.487Z,100219.59
2022-12-17T21:38:34.304Z,100223.59
2022-12-17T21:41:26.031Z,100233.13
2022-12-17T21:44:13.592Z,100233.13
2022-12-17T21:47:00.995Z,100237.09
2022-12-17T21:49:46.371Z,100241.44
2022-12-17T21:52:31.931Z,100245.44
2022-12-17T21:55:17.589Z,100245.84
2022-12-17T21:58:03.448Z,100245.84
2022-12-17T22:00:48.657Z,100248.19
2022-12-17T22:03:34.010Z,100239.47
2022-12-17T22:06:21.292Z,100243.44
2022-12-17T22:09:13.977Z,100231.53
2022-12-17T22:12:22.449Z,100233.16
2022-12-17T22:15:08.601Z,100233.16
2022-12-17T22:17:57.972Z,100238.31
2022-12-17T22:20:43.955Z,100238.34
2022-12-17T22:23:29.676Z,100241.53
2022-12-17T22:26:17.297Z,100245.91
2022-12-17T22:29:03.263Z,100248.31
2022-12-17T22:32:07.128Z,100254.66
2022-12-17T22:35:43.853Z,100264.97
2022-12-17T22:40:59.034Z,100268.16
2022-12-17T22:44:39.147Z,100266.16
2022-12-17T22:44:44.261Z,100259.00
2022-12-17T22:47:16.378Z,100263.38
2022-12-17T22:50:01.591Z,100272.91
2022-12-17T22:52:47.233Z,100272.13
2022-12-17T22:55:33.974Z,100273.69
2022-12-17T22:58:20.390Z,100283.22
2022-12-17T23:01:05.717Z,100277.28
2022-12-17T23:03:55.536Z,100282.81
2022-12-17T23:06:42.604Z,100280.03
2022-12-17T23:09:28.048Z,100284.00
2022-12-17T23:12:31.852Z,100284.41
2022-12-17T23:15:18.808Z,100288.38
2022-12-17T23:18:06.861Z,100282.44
2022-12-17T23:20:53.403Z,100285.59
2022-12-17T23:23:39.251Z,100287.97
2022-12-17T23:26:34.751Z,100289.16
2022-12-17T23:29:20.344Z,100297.13
2022-12-17T23:32:05.849Z,100299.06
2022-12-17T23:34:51.428Z,100301.06
2022-12-17T23:37:39.953Z,100302.25
2022-12-17T23:40:25.910Z,100304.22
2022-12-17T23:43:15.884Z,100309.00
2022-12-17T23:46:03.719Z,100300.66
2022-12-17T23:48:51.142Z,100295.09
2022-12-17T23:51:36.589Z,100293.53
2022-12-17T23:54:21.883Z,100299.09
2022-12-17T23:57:07.147Z,100301.47
2022-12-17T23:59:52.296Z,100302.25
